Time;durP1;ratioP1;P1;durP2;ratioP2;P2;SDS_P1;SDS_P2;PMS_P1;PMS_P2;Temp;Humidity;BMP_temperature;BMP_pressure;BME280_temperature;BME280_humidity;BME280_pressure;Samples;Min_cycle;Max_cycle;Signal;HPM_P1;HPM_P2
2023/09/13 00:00:54;;;;;;;14.68;7.68;;;;;;;;;;5033881;28;20487;-67
2023/09/13 00:03:20;;;;;;;14.80;7.07;;;;;;;;;;5032929;28;20049;-67
2023/09/13 00:05:46;;;;;;;15.02;7.18;;;;;;;;;;5033984;28;20044;-67
2023/09/13 00:08:12;;;;;;;18.27;7.35;;;;;;;;;;5033880;28;20044;-67
2023/09/13 00:10:38;;;;;;;13.93;6.55;;;;;;;;;;5033452;28;20037;-67
2023/09/13 00:13:04;;;;;;;16.40;7.68;;;;;;;;;;5033788;28;20527;-67
2023/09/13 00:15:30;;;;;;;15.50;8.00;;;;;;;;;;5032679;28;20115;-67
2023/09/13 00:17:56;;;;;;;20.42;8.07;;;;;;;;;;5034151;28;20052;-67
2023/09/13 00:20:22;;;;;;;14.52;8.13;;;;;;;;;;5053588;28;20441;-67
2023/09/13 00:22:48;;;;;;;17.80;7.70;;;;;;;;;;5053415;28;20099;-67
2023/09/13 00:25:14;;;;;;;16.40;7.93;;;;;;;;;;5049112;28;20033;-67
2023/09/13 00:27:40;;;;;;;18.38;7.25;;;;;;;;;;5015736;28;20041;-67
2023/09/13 00:30:08;;;;;;;14.02;6.95;;;;;;;;;;5033336;28;20073;-67
2023/09/13 00:32:35;;;;;;;15.30;6.45;;;;;;;;;;5015134;28;20431;-66
2023/09/13 00:35:01;;;;;;;13.00;6.18;;;;;;;;;;5033268;28;20045;-66
2023/09/13 00:37:27;;;;;;;13.25;5.90;;;;;;;;;;5032954;28;20041;-66
2023/09/13 00:39:53;;;;;;;13.95;4.75;;;;;;;;;;5032626;28;20048;-66
2023/09/13 00:42:19;;;;;;;11.82;4.75;;;;;;;;;;5033324;28;20533;-66
2023/09/13 00:44:45;;;;;;;14.45;4.72;;;;;;;;;;5033060;28;20045;-66
2023/09/13 00:47:12;;;;;;;16.10;4.35;;;;;;;;;;5032810;28;20033;-66
2023/09/13 00:49:38;;;;;;;12.73;4.72;;;;;;;;;;5032974;28;20053;-66
2023/09/13 00:52:05;;;;;;;10.75;4.68;;;;;;;;;;5033152;28;20124;-66
2023/09/13 00:54:31;;;;;;;8.25;4.18;;;;;;;;;;5032764;28;20073;-66
2023/09/13 00:56:57;;;;;;;7.57;4.25;;;;;;;;;;5032812;28;20055;-66
2023/09/13 00:59:24;;;;;;;12.23;4.28;;;;;;;;;;5032906;28;20084;-66
2023/09/13 01:01:50;;;;;;;10.07;3.88;;;;;;;;;;5032920;28;20154;-66
2023/09/13 01:04:16;;;;;;;8.52;3.45;;;;;;;;;;5032103;28;20129;-66
2023/09/13 01:06:42;;;;;;;10.13;3.70;;;;;;;;;;5032757;28;20125;-66
2023/09/13 01:09:08;;;;;;;8.98;3.35;;;;;;;;;;5032885;28;20511;-66
2023/09/13 01:11:34;;;;;;;6.50;3.20;;;;;;;;;;5032507;28;20080;-66
2023/09/13 01:14:00;;;;;;;8.55;3.10;;;;;;;;;;5032627;28;20041;-66
2023/09/13 01:16:32;;;;;;;9.32;3.70;;;;;;;;;;5039176;28;20044;-66
2023/09/13 01:19:04;;;;;;;13.68;3.83;;;;;;;;;;5052000;28;20122;-66
2023/09/13 01:21:43;;;;;;;10.35;3.00;;;;;;;;;;5052373;28;20391;-66
2023/09/13 01:24:24;;;;;;;9.32;3.00;;;;;;;;;;5051833;28;20082;-66
2023/09/13 01:27:10;;;;;;;6.25;3.22;;;;;;;;;;5035202;28;20037;-66
2023/09/13 01:29:37;;;;;;;8.80;2.90;;;;;;;;;;5032001;28;20060;-66
2023/09/13 01:32:03;;;;;;;11.93;3.55;;;;;;;;;;5032180;28;20041;-66
2023/09/13 01:34:29;;;;;;;10.52;3.50;;;;;;;;;;5031572;28;20037;-66
2023/09/13 01:36:56;;;;;;;11.85;3.20;;;;;;;;;;5030988;28;20053;-66
2023/09/13 01:39:22;;;;;;;11.88;3.40;;;;;;;;;;5030603;28;20120;-66
2023/09/13 01:41:59;;;;;;;6.07;3.08;;;;;;;;;;5031008;28;20143;-66
2023/09/13 01:44:26;;;;;;;10.57;3.33;;;;;;;;;;5030728;28;20041;-66
2023/09/13 01:46:53;;;;;;;8.82;2.70;;;;;;;;;;5030352;28;20047;-66
2023/09/13 01:49:20;;;;;;;7.25;2.92;;;;;;;;;;5030537;28;20131;-66
2023/09/13 01:51:47;;;;;;;9.40;3.13;;;;;;;;;;5030589;28;20049;-66
2023/09/13 01:54:13;;;;;;;11.80;3.72;;;;;;;;;;5012422;28;20408;-66
2023/09/13 01:56:39;;;;;;;9.52;2.35;;;;;;;;;;5030780;28;20049;-66
2023/09/13 01:59:05;;;;;;;8.23;2.58;;;;;;;;;;5030601;28;20431;-66
2023/09/13 02:01:30;;;;;;;10.20;2.88;;;;;;;;;;5030319;28;20052;-66
2023/09/13 02:03:56;;;;;;;8.00;2.60;;;;;;;;;;5030300;28;20615;-66
2023/09/13 02:06:22;;;;;;;8.00;2.42;;;;;;;;;;5030626;28;20037;-66
2023/09/13 02:08:48;;;;;;;8.43;2.90;;;;;;;;;;5030051;28;20041;-66
2023/09/13 02:11:14;;;;;;;5.68;2.30;;;;;;;;;;5030730;28;20095;-66
2023/09/13 02:13:40;;;;;;;8.20;2.80;;;;;;;;;;5030459;28;20069;-66
2023/09/13 02:16:07;;;;;;;12.85;2.70;;;;;;;;;;5033855;28;20098;-66
2023/09/13 02:18:33;;;;;;;9.38;2.80;;;;;;;;;;5050320;28;20106;-66
2023/09/13 02:20:59;;;;;;;10.75;2.85;;;;;;;;;;5050096;28;20045;-66
2023/09/13 02:23:25;;;;;;;7.72;2.30;;;;;;;;;;5049644;28;20103;-66
2023/09/13 02:25:51;;;;;;;7.25;2.40;;;;;;;;;;5041378;28;20034;-66
2023/09/13 02:28:17;;;;;;;8.98;2.40;;;;;;;;;;5030506;28;20033;-66
2023/09/13 02:30:45;;;;;;;8.98;2.40;;;;;;;;;;5030110;28;20042;-66
2023/09/13 02:33:11;;;;;;;9.68;2.40;;;;;;;;;;5030544;28;20424;-66
2023/09/13 02:35:37;;;;;;;6.95;2.38;;;;;;;;;;5030165;28;20045;-66
2023/09/13 02:38:03;;;;;;;6.90;3.10;;;;;;;;;;5030408;28;20395;-66
2023/09/13 02:40:29;;;;;;;11.48;3.30;;;;;;;;;;5032932;28;20080;-65
2023/09/13 02:42:55;;;;;;;9.35;2.88;;;;;;;;;;5034338;28;20076;-65
2023/09/13 02:45:21;;;;;;;10.20;2.55;;;;;;;;;;5034164;28;20060;-65
2023/09/13 02:47:47;;;;;;;9.18;2.70;;;;;;;;;;5015838;28;20041;-65
2023/09/13 02:50:13;;;;;;;8.70;2.78;;;;;;;;;;5033860;28;20466;-65
2023/09/13 02:52:41;;;;;;;8.73;2.60;;;;;;;;;;5034215;28;20577;-65
2023/09/13 02:55:07;;;;;;;6.85;2.47;;;;;;;;;;5033483;28;20056;-65
2023/09/13 02:57:33;;;;;;;9.98;2.25;;;;;;;;;;5033944;28;20056;-65
2023/09/13 03:00:00;;;;;;;10.65;2.42;;;;;;;;;;5034015;28;20095;-65
2023/09/13 03:02:26;;;;;;;7.80;2.20;;;;;;;;;;5033557;28;20336;-65
2023/09/13 03:04:52;;;;;;;5.30;2.70;;;;;;;;;;5033649;28;20041;-65
2023/09/13 03:07:19;;;;;;;7.47;2.33;;;;;;;;;;5033705;28;20040;-65
2023/09/13 03:09:52;;;;;;;16.40;3.45;;;;;;;;;;5033599;28;20446;-65
2023/09/13 03:12:18;;;;;;;7.75;2.75;;;;;;;;;;5033816;28;20103;-65
2023/09/13 03:14:44;;;;;;;12.02;3.15;;;;;;;;;;5034003;28;20480;-65
2023/09/13 03:17:13;;;;;;;10.18;2.92;;;;;;;;;;5045816;28;20084;-65
2023/09/13 03:19:39;;;;;;;9.55;2.88;;;;;;;;;;5053177;28;20057;-65
2023/09/13 03:22:05;;;;;;;9.95;2.50;;;;;;;;;;5053144;28;20033;-65
2023/09/13 03:24:31;;;;;;;9.88;2.28;;;;;;;;;;5052950;28;20102;-65
2023/09/13 03:26:57;;;;;;;9.20;2.58;;;;;;;;;;5035298;28;20045;-65
2023/09/13 03:29:23;;;;;;;6.10;2.40;;;;;;;;;;5033462;28;20119;-65
2023/09/13 03:31:49;;;;;;;11.18;2.63;;;;;;;;;;5032841;28;20150;-66
2023/09/13 03:34:15;;;;;;;6.20;2.63;;;;;;;;;;5033233;28;20048;-66
2023/09/13 03:36:41;;;;;;;8.15;2.72;;;;;;;;;;5032835;28;20484;-66
2023/09/13 03:39:07;;;;;;;7.20;2.88;;;;;;;;;;5033051;28;20037;-66
2023/09/13 03:41:33;;;;;;;7.10;2.50;;;;;;;;;;5032951;28;20037;-66
2023/09/13 03:43:59;;;;;;;8.90;3.20;;;;;;;;;;5014979;28;20786;-66
2023/09/13 03:46:25;;;;;;;9.68;2.67;;;;;;;;;;5032634;28;20128;-66
2023/09/13 03:48:51;;;;;;;5.57;1.98;;;;;;;;;;5033157;28;20114;-66
2023/09/13 03:51:17;;;;;;;10.98;2.25;;;;;;;;;;5032436;28;20120;-66
2023/09/13 03:53:43;;;;;;;7.78;2.67;;;;;;;;;;5032306;28;20049;-66
2023/09/13 03:56:09;;;;;;;6.57;2.40;;;;;;;;;;5015249;28;20057;-66
2023/09/13 03:58:36;;;;;;;7.78;2.08;;;;;;;;;;5014883;28;20053;-66
2023/09/13 04:01:02;;;;;;;11.20;2.72;;;;;;;;;;5032439;28;20060;-66
2023/09/13 04:03:29;;;;;;;6.30;2.25;;;;;;;;;;5032690;28;20053;-66
2023/09/13 04:05:55;;;;;;;6.53;2.20;;;;;;;;;;5032553;28;20076;-66
2023/09/13 04:08:21;;;;;;;8.00;2.17;;;;;;;;;;5032544;28;20381;-66
2023/09/13 04:10:47;;;;;;;7.72;2.10;;;;;;;;;;5014522;28;20041;-66
2023/09/13 04:13:13;;;;;;;7.43;2.33;;;;;;;;;;5032552;28;20376;-66
2023/09/13 04:15:39;;;;;;;9.57;2.70;;;;;;;;;;5031985;28;20091;-66
2023/09/13 04:18:08;;;;;;;8.27;2.28;;;;;;;;;;5053675;28;20033;-66
2023/09/13 04:20:33;;;;;;;6.55;2.55;;;;;;;;;;5053608;28;20041;-66
2023/09/13 04:22:59;;;;;;;8.40;2.13;;;;;;;;;;5052740;28;20675;-66
2023/09/13 04:25:25;;;;;;;10.52;3.40;;;;;;;;;;5047810;28;20041;-66
2023/09/13 04:27:51;;;;;;;7.30;2.42;;;;;;;;;;5033507;28;20041;-66
2023/09/13 04:30:18;;;;;;;7.45;2.20;;;;;;;;;;5033122;28;20048;-66
2023/09/13 04:32:44;;;;;;;8.65;2.88;;;;;;;;;;5033374;28;20052;-66
2023/09/13 04:35:13;;;;;;;8.73;3.35;;;;;;;;;;5033413;28;20052;-64
2023/09/13 04:37:40;;;;;;;10.77;2.47;;;;;;;;;;5015168;28;20436;-64
2023/09/13 04:40:06;;;;;;;5.15;2.10;;;;;;;;;;5033288;28;20102;-66
2023/09/13 04:42:36;;;;;;;7.82;2.30;;;;;;;;;;5033204;28;20124;-66
2023/09/13 04:45:03;;;;;;;6.63;2.42;;;;;;;;;;5032445;28;20052;-67
2023/09/13 04:47:29;;;;;;;13.98;6.35;;;;;;;;;;5033228;28;20110;-67
2023/09/13 04:49:55;;;;;;;9.45;3.60;;;;;;;;;;5032839;28;20128;-67
2023/09/13 04:52:21;;;;;;;7.10;2.50;;;;;;;;;;5032300;28;20060;-67
2023/09/13 04:54:47;;;;;;;9.95;2.60;;;;;;;;;;5038138;28;20406;-67
2023/09/13 04:57:13;;;;;;;10.30;2.50;;;;;;;;;;5052613;28;20043;-67
2023/09/13 04:59:44;;;;;;;9.00;2.30;;;;;;;;;;5052430;28;20111;-67
2023/09/13 05:02:11;;;;;;;13.30;2.83;;;;;;;;;;5052030;28;20095;-67
2023/09/13 05:04:37;;;;;;;12.52;2.85;;;;;;;;;;5052515;28;20353;-67
2023/09/13 05:07:03;;;;;;;11.05;3.10;;;;;;;;;;5034436;28;20090;-67
2023/09/13 05:09:29;;;;;;;11.23;2.60;;;;;;;;;;5052640;28;20036;-67
2023/09/13 05:11:55;;;;;;;6.25;2.17;;;;;;;;;;5052777;28;20123;-67
2023/09/13 05:14:21;;;;;;;14.77;3.00;;;;;;;;;;5034390;28;20048;-67
2023/09/13 05:16:47;;;;;;;10.70;2.13;;;;;;;;;;5034572;28;20550;-67
2023/09/13 05:19:13;;;;;;;8.18;3.00;;;;;;;;;;5034324;28;20045;-67
2023/09/13 05:21:39;;;;;;;8.95;2.45;;;;;;;;;;5051765;28;20297;-67
2023/09/13 05:24:05;;;;;;;12.77;2.80;;;;;;;;;;5052242;28;20099;-67
2023/09/13 05:26:32;;;;;;;10.57;2.40;;;;;;;;;;5038092;28;20030;-67
2023/09/13 05:28:58;;;;;;;9.73;2.20;;;;;;;;;;5032173;28;20041;-67
2023/09/13 05:31:24;;;;;;;9.63;2.50;;;;;;;;;;5032442;28;20484;-67
2023/09/13 05:33:50;;;;;;;7.97;2.20;;;;;;;;;;5032252;28;20047;-67
2023/09/13 05:36:16;;;;;;;8.48;2.13;;;;;;;;;;5031868;28;20045;-67
2023/09/13 05:38:42;;;;;;;7.20;2.10;;;;;;;;;;5032211;28;20463;-67
2023/09/13 05:41:12;;;;;;;5.20;1.70;;;;;;;;;;5032021;28;20045;-67
2023/09/13 05:43:39;;;;;;;9.18;2.42;;;;;;;;;;5031406;28;20038;-67
2023/09/13 05:46:05;;;;;;;8.32;2.17;;;;;;;;;;5032117;28;20034;-66
2023/09/13 05:48:31;;;;;;;10.02;1.92;;;;;;;;;;5032049;28;20042;-66
2023/09/13 05:50:57;;;;;;;6.53;1.73;;;;;;;;;;5031224;28;20437;-66
2023/09/13 05:53:24;;;;;;;8.02;1.48;;;;;;;;;;5031727;28;20124;-66
2023/09/13 05:55:50;;;;;;;5.13;1.67;;;;;;;;;;5031721;28;20049;-66
2023/09/13 05:58:16;;;;;;;4.45;1.38;;;;;;;;;;5031155;28;20049;-66
2023/09/13 06:00:43;;;;;;;3.25;1.35;;;;;;;;;;5013922;28;20184;-66
2023/09/13 06:03:10;;;;;;;5.32;1.55;;;;;;;;;;5031707;28;20468;-66
2023/09/13 06:05:36;;;;;;;7.43;2.22;;;;;;;;;;5030967;28;20037;-66
2023/09/13 06:08:02;;;;;;;5.65;1.60;;;;;;;;;;5031070;28;20034;-66
2023/09/13 06:10:28;;;;;;;4.65;1.40;;;;;;;;;;5014036;28;20492;-66
2023/09/13 06:12:54;;;;;;;5.50;1.70;;;;;;;;;;5030754;28;20038;-66
2023/09/13 06:15:20;;;;;;;7.65;2.20;;;;;;;;;;5012146;28;20084;-66
2023/09/13 06:17:47;;;;;;;8.20;1.92;;;;;;;;;;5048588;28;20053;-66
2023/09/13 06:20:13;;;;;;;4.43;1.50;;;;;;;;;;5050924;28;20391;-66
2023/09/13 06:22:39;;;;;;;6.43;1.75;;;;;;;;;;5051606;28;20116;-66
2023/09/13 06:25:05;;;;;;;6.55;1.65;;;;;;;;;;5048736;28;20049;-66
2023/09/13 06:27:31;;;;;;;7.03;1.77;;;;;;;;;;5031335;28;20030;-67
2023/09/13 06:29:57;;;;;;;7.75;1.88;;;;;;;;;;5034246;28;20040;-65
2023/09/13 06:32:24;;;;;;;6.63;1.30;;;;;;;;;;5050421;28;20048;-65
2023/09/13 06:34:50;;;;;;;5.18;1.55;;;;;;;;;;5052576;28;20372;-65
2023/09/13 06:37:16;;;;;;;6.57;1.52;;;;;;;;;;5054546;28;20040;-65
2023/09/13 06:39:42;;;;;;;4.95;1.60;;;;;;;;;;5033367;28;20044;-65
2023/09/13 06:42:08;;;;;;;4.40;1.77;;;;;;;;;;5061458;28;20070;-65
2023/09/13 06:44:34;;;;;;;5.45;1.70;;;;;;;;;;5056862;28;20041;-66
2023/09/13 06:47:00;;;;;;;6.00;1.77;;;;;;;;;;5053099;28;20059;-66
2023/09/13 06:49:27;;;;;;;7.95;2.47;;;;;;;;;;5070381;28;20040;-66
2023/09/13 06:51:53;;;;;;;6.13;1.92;;;;;;;;;;5042599;28;20041;-66
2023/09/13 06:54:19;;;;;;;5.88;2.17;;;;;;;;;;5062756;28;20040;-66
2023/09/13 06:56:46;;;;;;;6.60;2.00;;;;;;;;;;5070745;28;20079;-66
2023/09/13 06:59:12;;;;;;;6.72;2.38;;;;;;;;;;5070235;28;20669;-66
2023/09/13 07:01:38;;;;;;;8.38;2.60;;;;;;;;;;5044297;28;20079;-66
2023/09/13 07:04:05;;;;;;;10.25;2.28;;;;;;;;;;5049617;28;20041;-67
2023/09/13 07:06:31;;;;;;;8.65;2.65;;;;;;;;;;5059846;28;20546;-66
2023/09/13 07:08:57;;;;;;;12.98;3.00;;;;;;;;;;5070231;28;20040;-66
2023/09/13 07:11:25;;;;;;;14.02;2.88;;;;;;;;;;5070152;28;20090;-66
2023/09/13 07:13:52;;;;;;;8.48;2.60;;;;;;;;;;5069280;28;20056;-66
2023/09/13 07:16:18;;;;;;;13.38;2.50;;;;;;;;;;5055337;28;20037;-66
2023/09/13 07:18:44;;;;;;;9.55;2.85;;;;;;;;;;5064560;28;20076;-66
2023/09/13 07:21:10;;;;;;;11.52;3.25;;;;;;;;;;5069682;28;20044;-65
2023/09/13 07:23:36;;;;;;;8.93;2.78;;;;;;;;;;5065193;28;20086;-66
2023/09/13 07:26:02;;;;;;;8.38;2.47;;;;;;;;;;5070997;28;20047;-66
2023/09/13 07:28:29;;;;;;;11.77;3.05;;;;;;;;;;5073686;28;20049;-66
2023/09/13 07:30:55;;;;;;;10.32;3.15;;;;;;;;;;5073831;28;20036;-66
2023/09/13 07:33:21;;;;;;;13.25;2.72;;;;;;;;;;5039234;28;20040;-66
2023/09/13 07:35:47;;;;;;;12.80;2.92;;;;;;;;;;5048142;28;20082;-67
2023/09/13 07:38:14;;;;;;;9.75;2.88;;;;;;;;;;5063923;28;20036;-66
2023/09/13 07:40:40;;;;;;;10.48;2.67;;;;;;;;;;5065249;28;20095;-66
2023/09/13 07:43:07;;;;;;;11.50;2.90;;;;;;;;;;5060072;28;20045;-66
2023/09/13 07:45:34;;;;;;;15.52;3.10;;;;;;;;;;5059040;28;20064;-66
2023/09/13 07:48:00;;;;;;;16.70;3.47;;;;;;;;;;5059698;28;20051;-66
2023/09/13 07:50:31;;;;;;;10.52;2.45;;;;;;;;;;5072391;28;20061;-65
2023/09/13 07:52:57;;;;;;;15.85;3.35;;;;;;;;;;5072621;28;20053;-65
2023/09/13 07:55:25;;;;;;;15.35;3.00;;;;;;;;;;5073122;28;20143;-66
2023/09/13 07:57:51;;;;;;;13.20;3.00;;;;;;;;;;5056789;28;20078;-66
2023/09/13 08:00:17;;;;;;;12.95;2.80;;;;;;;;;;5072146;28;20040;-66
2023/09/13 08:02:44;;;;;;;10.27;2.92;;;;;;;;;;5072340;28;20118;-66
2023/09/13 08:05:10;;;;;;;9.35;3.00;;;;;;;;;;5071566;28;20052;-66
2023/09/13 08:07:36;;;;;;;16.58;3.28;;;;;;;;;;5072407;28;20336;-66
2023/09/13 08:10:03;;;;;;;15.55;3.28;;;;;;;;;;5071925;28;20056;-66
2023/09/13 08:12:30;;;;;;;15.00;3.38;;;;;;;;;;5045899;28;20064;-66
2023/09/13 08:14:56;;;;;;;9.45;3.13;;;;;;;;;;5026917;28;20128;-66
2023/09/13 08:17:22;;;;;;;8.55;3.15;;;;;;;;;;5059251;28;20056;-67
2023/09/13 08:19:49;;;;;;;11.50;2.88;;;;;;;;;;5055869;28;20032;-66
2023/09/13 08:22:15;;;;;;;12.57;2.83;;;;;;;;;;5072463;28;20053;-66
2023/09/13 08:24:41;;;;;;;12.38;2.65;;;;;;;;;;5072246;28;20047;-66
2023/09/13 08:27:07;;;;;;;9.20;2.83;;;;;;;;;;5052964;28;20037;-65
2023/09/13 08:29:35;;;;;;;12.15;2.80;;;;;;;;;;5052452;28;20094;-65
2023/09/13 08:32:01;;;;;;;12.13;3.20;;;;;;;;;;5052577;28;20419;-65
2023/09/13 08:34:27;;;;;;;12.52;2.63;;;;;;;;;;5047657;28;20043;-65
2023/09/13 08:36:57;;;;;;;7.53;2.55;;;;;;;;;;5071498;28;20040;-65
2023/09/13 08:39:23;;;;;;;13.00;3.33;;;;;;;;;;5054467;28;20472;-66
2023/09/13 08:41:53;;;;;;;9.40;2.90;;;;;;;;;;5044841;28;20543;-61
2023/09/13 08:44:20;;;;;;;12.68;2.85;;;;;;;;;;5043320;28;20037;-59
2023/09/13 08:46:47;;;;;;;8.65;3.08;;;;;;;;;;5034119;28;20550;-59
2023/09/13 08:49:13;;;;;;;9.80;2.60;;;;;;;;;;5033778;28;20042;-59
2023/09/13 08:51:39;;;;;;;11.10;2.75;;;;;;;;;;5071157;28;20048;-58
2023/09/13 08:54:06;;;;;;;10.90;2.85;;;;;;;;;;5053269;28;20060;-58
2023/09/13 08:56:32;;;;;;;11.52;2.78;;;;;;;;;;5048716;28;20048;-59
2023/09/13 08:58:58;;;;;;;7.70;2.58;;;;;;;;;;5052568;28;20079;-57
2023/09/13 09:01:25;;;;;;;8.40;2.67;;;;;;;;;;5051728;28;20102;-59
2023/09/13 09:03:52;;;;;;;10.27;2.55;;;;;;;;;;5067744;28;20040;-59
2023/09/13 09:06:19;;;;;;;11.10;2.50;;;;;;;;;;5050804;28;20029;-59
2023/09/13 09:08:45;;;;;;;7.78;2.60;;;;;;;;;;5055009;28;20369;-60
2023/09/13 09:11:11;;;;;;;8.55;2.33;;;;;;;;;;5046296;28;20036;-61
2023/09/13 09:13:39;;;;;;;6.13;2.35;;;;;;;;;;5046111;28;20036;-62
2023/09/13 09:16:05;;;;;;;10.25;2.92;;;;;;;;;;5033801;28;20037;-62
2023/09/13 09:18:32;;;;;;;8.52;2.00;;;;;;;;;;5054144;28;20151;-61
2023/09/13 09:20:58;;;;;;;6.80;2.13;;;;;;;;;;5049905;28;20083;-61
2023/09/13 09:23:25;;;;;;;8.63;2.25;;;;;;;;;;5047786;28;20483;-61
2023/09/13 09:25:51;;;;;;;8.75;2.35;;;;;;;;;;5041062;28;20057;-60
2023/09/13 09:28:17;;;;;;;9.75;1.92;;;;;;;;;;5032465;28;20045;-62
2023/09/13 09:30:45;;;;;;;7.38;2.50;;;;;;;;;;5056796;28;20388;-61
2023/09/13 09:33:12;;;;;;;8.48;2.40;;;;;;;;;;5057354;28;20049;-61
2023/09/13 09:35:38;;;;;;;5.50;2.15;;;;;;;;;;5058081;28;20094;-60
2023/09/13 09:38:04;;;;;;;4.88;2.40;;;;;;;;;;5061143;28;20041;-60
2023/09/13 09:40:39;;;;;;;5.45;2.33;;;;;;;;;;5053667;28;20041;-60
2023/09/13 09:43:05;;;;;;;7.45;2.42;;;;;;;;;;5052643;28;20040;-61
2023/09/13 09:45:31;;;;;;;7.72;2.05;;;;;;;;;;5047147;28;20425;-62
2023/09/13 09:47:57;;;;;;;12.00;2.50;;;;;;;;;;5070079;28;20138;-61
2023/09/13 09:50:23;;;;;;;5.30;2.30;;;;;;;;;;5070319;28;20045;-60
2023/09/13 09:52:50;;;;;;;6.90;1.75;;;;;;;;;;5070675;28;20051;-61
2023/09/13 09:55:17;;;;;;;7.18;1.95;;;;;;;;;;5053508;28;20072;-62
2023/09/13 09:57:47;;;;;;;8.35;2.25;;;;;;;;;;5053138;28;20048;-62
2023/09/13 10:00:14;;;;;;;9.88;2.40;;;;;;;;;;5052790;28;20094;-61
2023/09/13 10:02:40;;;;;;;6.68;2.05;;;;;;;;;;5058979;28;20371;-61
2023/09/13 10:05:06;;;;;;;11.60;2.45;;;;;;;;;;5049744;28;20044;-61
2023/09/13 10:07:42;;;;;;;11.57;2.28;;;;;;;;;;5067383;28;20040;-61
2023/09/13 10:10:11;;;;;;;11.45;2.85;;;;;;;;;;5070141;28;20044;-61
2023/09/13 10:12:50;;;;;;;7.40;2.25;;;;;;;;;;5033791;28;20040;-61
2023/09/13 10:15:18;;;;;;;11.68;3.20;;;;;;;;;;5041219;28;20064;-61
2023/09/13 10:17:47;;;;;;;8.18;2.40;;;;;;;;;;5041221;28;20080;-62
2023/09/13 10:20:14;;;;;;;7.47;1.98;;;;;;;;;;5051965;28;20094;-62
2023/09/13 10:22:42;;;;;;;6.75;1.95;;;;;;;;;;5067601;28;20529;-61
2023/09/13 10:25:11;;;;;;;7.25;2.10;;;;;;;;;;5036921;28;20037;-61
2023/09/13 10:27:39;;;;;;;8.68;2.40;;;;;;;;;;5064707;28;20048;-61
2023/09/13 10:30:06;;;;;;;7.40;2.28;;;;;;;;;;5066622;28;20041;-62
2023/09/13 10:32:47;;;;;;;7.47;2.20;;;;;;;;;;5043621;28;20037;-62
2023/09/13 10:35:15;;;;;;;7.95;2.60;;;;;;;;;;5041151;28;20049;-62
2023/09/13 10:37:49;;;;;;;8.82;2.78;;;;;;;;;;5042530;28;20045;-61
2023/09/13 10:40:20;;;;;;;12.32;3.17;;;;;;;;;;5069986;28;20178;-61
2023/09/13 10:42:46;;;;;;;11.77;2.55;;;;;;;;;;5048221;28;20127;-62
2023/09/13 10:45:17;;;;;;;8.55;2.42;;;;;;;;;;5044857;28;20088;-62
2023/09/13 10:47:43;;;;;;;9.55;2.50;;;;;;;;;;5058573;28;20475;-61
2023/09/13 10:50:09;;;;;;;8.00;2.20;;;;;;;;;;5048143;28;20061;-61
2023/09/13 10:52:36;;;;;;;7.75;2.17;;;;;;;;;;5058329;28;20047;-62
2023/09/13 10:55:06;;;;;;;9.15;2.45;;;;;;;;;;5047270;28;20076;-61
2023/09/13 10:57:33;;;;;;;10.82;2.80;;;;;;;;;;5031844;28;20496;-62
2023/09/13 10:59:59;;;;;;;7.18;2.53;;;;;;;;;;5060903;28;20067;-61
2023/09/13 11:02:26;;;;;;;11.05;2.40;;;;;;;;;;5072001;28;20036;-60
2023/09/13 11:04:53;;;;;;;8.20;2.47;;;;;;;;;;5028773;28;20120;-61
2023/09/13 11:07:19;;;;;;;9.95;2.70;;;;;;;;;;5061494;28;20065;-61
2023/09/13 11:09:48;;;;;;;6.97;2.45;;;;;;;;;;5036584;28;20401;-60
2023/09/13 11:12:14;;;;;;;6.55;2.30;;;;;;;;;;5073702;28;20040;-60
2023/09/13 11:14:50;;;;;;;14.43;3.00;;;;;;;;;;5045218;28;21579;-61
2023/09/13 11:17:37;;;;;;;6.97;2.60;;;;;;;;;;5046295;28;20048;-61
2023/09/13 11:20:23;;;;;;;8.30;2.63;;;;;;;;;;5072515;28;20097;-61
2023/09/13 11:23:09;;;;;;;10.60;2.95;;;;;;;;;;5066337;28;20036;-61
2023/09/13 11:25:35;;;;;;;9.75;2.50;;;;;;;;;;5035751;28;20049;-61
2023/09/13 11:28:27;;;;;;;8.35;2.85;;;;;;;;;;5070410;28;20040;-61
2023/09/13 11:30:56;;;;;;;9.13;2.80;;;;;;;;;;5073003;28;20036;-61
2023/09/13 11:33:22;;;;;;;6.55;2.63;;;;;;;;;;5055147;28;20032;-61
2023/09/13 11:35:50;;;;;;;8.57;2.60;;;;;;;;;;5048536;28;20052;-61
2023/09/13 11:38:17;;;;;;;5.47;2.33;;;;;;;;;;5039197;28;20060;-62
2023/09/13 11:40:47;;;;;;;4.75;2.38;;;;;;;;;;5072760;28;20611;-61
2023/09/13 11:43:19;;;;;;;4.32;2.30;;;;;;;;;;5065592;28;20066;-61
2023/09/13 11:45:47;;;;;;;8.82;3.17;;;;;;;;;;5048236;28;20120;-61
2023/09/13 11:48:13;;;;;;;9.88;2.90;;;;;;;;;;5072139;28;20123;-60
2023/09/13 11:50:43;;;;;;;6.07;2.65;;;;;;;;;;5067443;28;20110;-61
2023/09/13 11:53:13;;;;;;;5.28;2.20;;;;;;;;;;5061544;28;20029;-61
2023/09/13 11:55:39;;;;;;;5.97;2.50;;;;;;;;;;5045342;28;20059;-61
2023/09/13 11:58:06;;;;;;;6.82;2.40;;;;;;;;;;5048428;28;20644;-61
2023/09/13 12:00:40;;;;;;;5.75;2.63;;;;;;;;;;5064277;28;20595;-61
2023/09/13 12:03:06;;;;;;;7.20;2.00;;;;;;;;;;5051368;28;20044;-61
2023/09/13 12:05:33;;;;;;;5.88;2.67;;;;;;;;;;5061341;28;20592;-61
2023/09/13 12:08:00;;;;;;;5.15;2.42;;;;;;;;;;5048951;28;20052;-61
2023/09/13 12:10:30;;;;;;;6.85;2.47;;;;;;;;;;5049648;28;20425;-62
2023/09/13 12:12:56;;;;;;;5.63;2.63;;;;;;;;;;5038811;28;20076;-61
2023/09/13 12:15:25;;;;;;;7.50;2.72;;;;;;;;;;5035900;28;21096;-62
2023/09/13 12:17:51;;;;;;;8.70;2.38;;;;;;;;;;5034345;28;20057;-61
2023/09/13 12:20:17;;;;;;;4.60;1.95;;;;;;;;;;5065131;28;20487;-62
2023/09/13 12:22:43;;;;;;;7.45;2.25;;;;;;;;;;5051758;28;20471;-61
2023/09/13 12:25:10;;;;;;;3.15;1.48;;;;;;;;;;5053549;28;20053;-61
2023/09/13 12:27:36;;;;;;;5.60;1.70;;;;;;;;;;5030956;28;20037;-61
2023/09/13 12:30:06;;;;;;;4.82;1.60;;;;;;;;;;5046698;28;20046;-61
2023/09/13 12:32:32;;;;;;;4.07;1.50;;;;;;;;;;5031680;28;20048;-61
2023/09/13 12:34:58;;;;;;;4.15;1.35;;;;;;;;;;5045870;28;20352;-61
2023/09/13 12:37:24;;;;;;;7.00;1.40;;;;;;;;;;5053684;28;20151;-62
2023/09/13 12:39:50;;;;;;;2.80;1.35;;;;;;;;;;5053007;28;20483;-62
2023/09/13 12:42:16;;;;;;;4.43;1.60;;;;;;;;;;5018821;28;20097;-62
2023/09/13 12:44:46;;;;;;;5.07;1.60;;;;;;;;;;5072836;28;20059;-62
2023/09/13 12:47:12;;;;;;;5.53;1.60;;;;;;;;;;5072430;28;20501;-62
2023/09/13 12:49:38;;;;;;;2.95;1.25;;;;;;;;;;5072682;28;20048;-62
2023/09/13 12:52:05;;;;;;;5.00;1.58;;;;;;;;;;5072485;28;20517;-62
2023/09/13 12:54:34;;;;;;;4.80;1.42;;;;;;;;;;5072208;28;20053;-62
2023/09/13 12:57:03;;;;;;;4.30;1.23;;;;;;;;;;5052815;28;20047;-62
2023/09/13 12:59:42;;;;;;;7.00;1.73;;;;;;;;;;5064065;28;20037;-62
2023/09/13 13:02:18;;;;;;;4.53;1.60;;;;;;;;;;5072028;28;20074;-62
2023/09/13 13:04:44;;;;;;;6.82;1.35;;;;;;;;;;5072233;28;20044;-62
2023/09/13 13:07:10;;;;;;;6.10;1.90;;;;;;;;;;5072308;28;20250;-62
2023/09/13 13:09:36;;;;;;;5.53;1.40;;;;;;;;;;5072244;28;20036;-62
2023/09/13 13:12:03;;;;;;;8.25;1.58;;;;;;;;;;5072071;28;20043;-62
2023/09/13 13:14:31;;;;;;;6.22;1.45;;;;;;;;;;5072300;28;20040;-62
2023/09/13 13:16:58;;;;;;;8.15;1.90;;;;;;;;;;5060086;28;20565;-62
2023/09/13 13:19:32;;;;;;;4.88;1.35;;;;;;;;;;5060689;28;20040;-62
2023/09/13 13:21:58;;;;;;;6.10;1.70;;;;;;;;;;5070574;28;20501;-62
2023/09/13 13:24:25;;;;;;;9.10;2.00;;;;;;;;;;5069705;28;20076;-62
2023/09/13 13:26:51;;;;;;;6.10;1.38;;;;;;;;;;5058915;28;20048;-62
2023/09/13 13:29:17;;;;;;;8.40;1.60;;;;;;;;;;5070822;28;20033;-62
2023/09/13 13:31:43;;;;;;;7.32;1.45;;;;;;;;;;5070086;28;20044;-62
2023/09/13 13:34:09;;;;;;;5.95;1.65;;;;;;;;;;5070323;28;20383;-62
2023/09/13 13:36:35;;;;;;;8.32;1.50;;;;;;;;;;5070511;28;20041;-62
2023/09/13 13:39:05;;;;;;;8.57;1.90;;;;;;;;;;5069924;28;20053;-62
2023/09/13 13:41:31;;;;;;;9.05;1.55;;;;;;;;;;5070672;28;20052;-62
2023/09/13 13:43:59;;;;;;;5.25;1.58;;;;;;;;;;5070229;28;20123;-62
2023/09/13 13:46:25;;;;;;;9.32;2.05;;;;;;;;;;5069731;28;20441;-62
2023/09/13 13:48:53;;;;;;;6.53;1.30;;;;;;;;;;5070356;28;20032;-62
2023/09/13 13:51:19;;;;;;;9.30;1.70;;;;;;;;;;5069898;28;20130;-62
2023/09/13 13:53:45;;;;;;;5.65;1.58;;;;;;;;;;5051902;28;20056;-62
2023/09/13 13:56:11;;;;;;;9.65;1.70;;;;;;;;;;5070165;28;20071;-62
2023/09/13 13:58:37;;;;;;;5.75;1.50;;;;;;;;;;5069931;28;20037;-62
2023/09/13 14:01:04;;;;;;;5.97;1.63;;;;;;;;;;5069918;28;20551;-62
2023/09/13 14:03:30;;;;;;;8.57;1.83;;;;;;;;;;5051634;28;20052;-62
2023/09/13 14:05:56;;;;;;;8.50;1.88;;;;;;;;;;5069640;28;20032;-62
2023/09/13 14:08:23;;;;;;;7.28;1.83;;;;;;;;;;5069533;28;20044;-62
2023/09/13 14:10:49;;;;;;;10.32;1.77;;;;;;;;;;5070041;28;20498;-62
2023/09/13 14:13:17;;;;;;;6.93;2.20;;;;;;;;;;5070132;28;20708;-62
2023/09/13 14:15:44;;;;;;;13.05;2.38;;;;;;;;;;5068773;28;20048;-62
2023/09/13 14:18:10;;;;;;;6.70;1.85;;;;;;;;;;5031894;28;20128;-62
2023/09/13 14:20:41;;;;;;;12.35;1.73;;;;;;;;;;5068393;28;20111;-62
2023/09/13 14:23:07;;;;;;;8.55;1.60;;;;;;;;;;5069502;28;20052;-62
2023/09/13 14:25:33;;;;;;;14.15;2.50;;;;;;;;;;5045010;28;20033;-62
2023/09/13 14:27:59;;;;;;;9.70;2.20;;;;;;;;;;5062779;28;20040;-62
2023/09/13 14:30:24;;;;;;;8.18;1.67;;;;;;;;;;5059828;28;20080;-62
2023/09/13 14:32:50;;;;;;;8.00;1.80;;;;;;;;;;5030031;28;20050;-62
2023/09/13 14:35:16;;;;;;;7.35;1.75;;;;;;;;;;5031138;28;20044;-62
2023/09/13 14:37:43;;;;;;;6.63;2.00;;;;;;;;;;5016270;28;20459;-62